Time;durP1;ratioP1;P1;durP2;ratioP2;P2;SDS_P1;SDS_P2;PMS_P1;PMS_P2;Temp;Humidity;BMP_temperature;BMP_pressure;BME280_temperature;BME280_humidity;BME280_pressure;Samples;Min_cycle;Max_cycle;Signal;HPM_P1;HPM_P2
2024/01/25 00:02:14;;;;;;;;;;;6.90;99.90;;;;;;5011231;28;20117;-72
2024/01/25 00:04:42;;;;;;;;;;;6.90;99.90;;;;;;5004574;28;19957;-72
2024/01/25 00:07:09;;;;;;;;;;;6.90;99.90;;;;;;5012961;28;19922;-72
2024/01/25 00:09:36;;;;;;;;;;;6.90;99.90;;;;;;5019071;28;19922;-73
2024/01/25 00:12:03;;;;;;;;;;;6.90;99.90;;;;;;5023639;28;19984;-72
2024/01/25 00:14:29;;;;;;;;;;;7.00;99.90;;;;;;5016176;28;19957;-72
2024/01/25 00:16:56;;;;;;;;;;;7.00;99.90;;;;;;5014096;28;19922;-72
2024/01/25 00:19:22;;;;;;;;;;;6.90;99.90;;;;;;5014492;28;19980;-72
2024/01/25 00:21:50;;;;;;;;;;;6.90;99.90;;;;;;5022928;28;19953;-72
2024/01/25 00:24:17;;;;;;;;;;;7.00;99.90;;;;;;5021502;28;19957;-72
2024/01/25 00:26:44;;;;;;;;;;;7.00;99.90;;;;;;5015832;28;19980;-73
2024/01/25 00:29:10;;;;;;;;;;;7.00;99.90;;;;;;5022324;28;20228;-73
2024/01/25 00:31:37;;;;;;;;;;;7.00;99.90;;;;;;5020401;28;19992;-72
2024/01/25 00:34:04;;;;;;;;;;;7.00;99.90;;;;;;5006338;28;19953;-72
2024/01/25 00:36:31;;;;;;;;;;;7.00;99.90;;;;;;5007021;28;19957;-73
2024/01/25 00:38:59;;;;;;;;;;;6.90;99.90;;;;;;5013746;28;19921;-72
2024/01/25 00:41:26;;;;;;;;;;;7.00;99.90;;;;;;5007148;28;19985;-72
2024/01/25 00:43:53;;;;;;;;;;;7.00;99.90;;;;;;5011182;28;19963;-72
2024/01/25 00:46:19;;;;;;;;;;;7.00;99.90;;;;;;5021310;28;19957;-72
2024/01/25 00:48:46;;;;;;;;;;;7.00;99.90;;;;;;5020420;28;19953;-72
2024/01/25 00:51:15;;;;;;;;;;;7.00;99.90;;;;;;5013321;28;19928;-72
2024/01/25 00:53:42;;;;;;;;;;;7.00;99.90;;;;;;5023138;28;19952;-72
2024/01/25 00:56:11;;;;;;;;;;;7.00;99.90;;;;;;5022088;28;19963;-71
2024/01/25 00:58:38;;;;;;;;;;;7.00;99.90;;;;;;5020846;28;19957;-72
2024/01/25 01:01:05;;;;;;;;;;;7.00;99.90;;;;;;5021993;28;19921;-72
2024/01/25 01:03:32;;;;;;;;;;;7.00;99.90;;;;;;5020322;28;19922;-73
2024/01/25 01:05:59;;;;;;;;;;;7.00;99.90;;;;;;5021628;28;19963;-72
2024/01/25 01:08:26;;;;;;;;;;;7.00;99.90;;;;;;5005660;28;19993;-73
2024/01/25 01:10:53;;;;;;;;;;;7.00;99.90;;;;;;5009728;28;19963;-73
2024/01/25 01:13:21;;;;;;;;;;;7.00;99.90;;;;;;5021218;28;20273;-72
2024/01/25 01:15:47;;;;;;;;;;;7.00;99.90;;;;;;5021536;28;19964;-72
2024/01/25 01:18:14;;;;;;;;;;;7.00;99.90;;;;;;5021942;28;19957;-72
2024/01/25 01:20:40;;;;;;;;;;;7.00;99.90;;;;;;5021554;28;19976;-72
2024/01/25 01:23:07;;;;;;;;;;;7.00;99.90;;;;;;5022127;28;19985;-73
2024/01/25 01:25:34;;;;;;;;;;;7.00;99.90;;;;;;5020782;28;19977;-72
2024/01/25 01:28:00;;;;;;;;;;;7.00;99.90;;;;;;5021959;28;19928;-72
2024/01/25 01:30:28;;;;;;;;;;;7.00;99.90;;;;;;5020976;28;19921;-73
2024/01/25 01:32:55;;;;;;;;;;;7.00;99.90;;;;;;5021850;28;20262;-72
2024/01/25 01:35:21;;;;;;;;;;;7.00;99.90;;;;;;5014249;28;19929;-72
2024/01/25 01:37:48;;;;;;;;;;;7.00;99.90;;;;;;5005376;28;19989;-72
2024/01/25 01:40:15;;;;;;;;;;;7.00;99.90;;;;;;5005608;28;19922;-72
2024/01/25 01:42:41;;;;;;;;;;;7.00;99.90;;;;;;5005757;28;19965;-72
2024/01/25 01:45:11;;;;;;;;;;;7.00;99.90;;;;;;5004884;28;19985;-72
2024/01/25 01:47:39;;;;;;;;;;;7.00;99.90;;;;;;5020457;28;19953;-72
2024/01/25 01:50:07;;;;;;;;;;;7.00;99.90;;;;;;5021528;28;19997;-72
2024/01/25 01:52:33;;;;;;;;;;;7.00;99.90;;;;;;5019824;28;19922;-72
2024/01/25 01:55:00;;;;;;;;;;;7.00;99.90;;;;;;5002419;28;20064;-72
2024/01/25 01:57:27;;;;;;;;;;;7.00;99.90;;;;;;5004766;28;20183;-72
2024/01/25 01:59:54;;;;;;;;;;;7.00;99.90;;;;;;5005040;28;20378;-72
2024/01/25 02:02:21;;;;;;;;;;;7.00;99.90;;;;;;5005675;28;20167;-72
2024/01/25 02:04:49;;;;;;;;;;;6.90;99.90;;;;;;5005026;28;19989;-72
2024/01/25 02:07:15;;;;;;;;;;;6.90;99.90;;;;;;5005795;28;19963;-72
2024/01/25 02:09:42;;;;;;;;;;;6.90;99.90;;;;;;5021713;28;19929;-72
2024/01/25 02:12:09;;;;;;;;;;;6.90;99.90;;;;;;5021495;28;20298;-72
2024/01/25 02:14:35;;;;;;;;;;;6.90;99.90;;;;;;5020332;28;19926;-71
2024/01/25 02:17:02;;;;;;;;;;;6.90;99.90;;;;;;5021714;28;19921;-72
2024/01/25 02:19:29;;;;;;;;;;;6.80;99.90;;;;;;5022082;28;19971;-72
2024/01/25 02:21:58;;;;;;;;;;;6.80;99.90;;;;;;5023108;28;19921;-72
2024/01/25 02:24:26;;;;;;;;;;;6.90;99.90;;;;;;5019581;28;19983;-72
2024/01/25 02:26:52;;;;;;;;;;;6.90;99.90;;;;;;5005213;28;19980;-72
2024/01/25 02:29:19;;;;;;;;;;;6.90;99.90;;;;;;5018507;28;19921;-71
2024/01/25 02:31:46;;;;;;;;;;;6.80;99.90;;;;;;5021693;28;19980;-72
2024/01/25 02:34:12;;;;;;;;;;;6.90;99.90;;;;;;5021288;28;20250;-72
2024/01/25 02:36:39;;;;;;;;;;;6.90;99.90;;;;;;5005320;28;19985;-73
2024/01/25 02:39:05;;;;;;;;;;;6.80;99.90;;;;;;5005085;28;19943;-72
2024/01/25 02:41:33;;;;;;;;;;;6.80;99.90;;;;;;5005818;28;19922;-72
2024/01/25 02:44:00;;;;;;;;;;;6.80;99.90;;;;;;5005071;28;19992;-72
2024/01/25 02:46:27;;;;;;;;;;;6.80;99.90;;;;;;5005415;28;19985;-72
2024/01/25 02:48:54;;;;;;;;;;;6.80;99.90;;;;;;5012366;28;20110;-72
2024/01/25 02:51:20;;;;;;;;;;;6.80;99.90;;;;;;5024411;28;19921;-72
2024/01/25 02:53:47;;;;;;;;;;;6.80;99.90;;;;;;5024615;28;20229;-72
2024/01/25 02:56:13;;;;;;;;;;;6.70;99.90;;;;;;5018404;28;19976;-72
2024/01/25 02:58:42;;;;;;;;;;;6.80;99.90;;;;;;5008817;28;19961;-72
2024/01/25 03:01:08;;;;;;;;;;;6.80;99.90;;;;;;5014742;28;19989;-73
2024/01/25 03:03:35;;;;;;;;;;;6.80;99.90;;;;;;5009187;28;19928;-72
2024/01/25 03:06:01;;;;;;;;;;;6.80;99.90;;;;;;5007134;28;19981;-73
2024/01/25 03:08:28;;;;;;;;;;;6.80;99.90;;;;;;5008709;28;20170;-72
2024/01/25 03:10:56;;;;;;;;;;;6.80;99.90;;;;;;5008121;28;19984;-72
2024/01/25 03:13:22;;;;;;;;;;;6.70;99.90;;;;;;5008816;28;19922;-73
2024/01/25 03:15:50;;;;;;;;;;;6.70;99.90;;;;;;5007323;28;19922;-72
2024/01/25 03:18:17;;;;;;;;;;;6.70;99.90;;;;;;5008275;28;19985;-72
2024/01/25 03:20:44;;;;;;;;;;;6.70;99.90;;;;;;5007751;28;19928;-72
2024/01/25 03:23:10;;;;;;;;;;;6.70;99.90;;;;;;5015179;28;19953;-72
2024/01/25 03:25:37;;;;;;;;;;;6.70;99.90;;;;;;5008189;28;19984;-72
2024/01/25 03:28:06;;;;;;;;;;;6.70;99.90;;;;;;5014018;28;19985;-73
2024/01/25 03:30:32;;;;;;;;;;;6.70;99.90;;;;;;5009108;28;19921;-73
2024/01/25 03:33:00;;;;;;;;;;;6.60;99.90;;;;;;5007522;28;19984;-73
2024/01/25 03:35:27;;;;;;;;;;;6.60;99.90;;;;;;5008045;28;19953;-72
2024/01/25 03:37:54;;;;;;;;;;;6.60;99.90;;;;;;5007753;28;19921;-72
2024/01/25 03:40:20;;;;;;;;;;;6.60;99.90;;;;;;5007915;28;19922;-73
2024/01/25 03:42:47;;;;;;;;;;;6.60;99.90;;;;;;5007452;28;19922;-72
2024/01/25 03:45:14;;;;;;;;;;;6.60;99.90;;;;;;5013642;28;19988;-73
2024/01/25 03:47:40;;;;;;;;;;;6.60;99.90;;;;;;5023361;28;19980;-72
2024/01/25 03:50:09;;;;;;;;;;;6.60;99.90;;;;;;5016814;28;19977;-72
2024/01/25 03:52:35;;;;;;;;;;;6.50;99.90;;;;;;5008375;28;19980;-72
2024/01/25 03:55:03;;;;;;;;;;;6.50;99.90;;;;;;5007130;28;19953;-72
2024/01/25 03:57:29;;;;;;;;;;;6.60;99.90;;;;;;5008233;28;19957;-72
2024/01/25 03:59:56;;;;;;;;;;;6.60;99.90;;;;;;5007081;28;19984;-72
2024/01/25 04:02:23;;;;;;;;;;;6.60;99.90;;;;;;5008019;28;19985;-72
2024/01/25 04:04:49;;;;;;;;;;;6.60;99.90;;;;;;5017128;28;20229;-72
2024/01/25 04:07:17;;;;;;;;;;;6.60;99.90;;;;;;5023939;28;20138;-72
2024/01/25 04:09:44;;;;;;;;;;;6.60;99.90;;;;;;5009100;28;19980;-72
2024/01/25 04:12:11;;;;;;;;;;;6.60;99.90;;;;;;5023501;28;19989;-72
2024/01/25 04:14:37;;;;;;;;;;;6.60;99.90;;;;;;5022020;28;19928;-72
2024/01/25 04:17:04;;;;;;;;;;;6.60;99.90;;;;;;5023470;28;19980;-72
2024/01/25 04:19:31;;;;;;;;;;;6.50;99.90;;;;;;5022672;28;20234;-72
2024/01/25 04:21:57;;;;;;;;;;;6.60;99.90;;;;;;5023242;28;19964;-72
2024/01/25 04:24:25;;;;;;;;;;;6.60;99.90;;;;;;5021856;28;19943;-72
2024/01/25 04:26:52;;;;;;;;;;;6.60;99.90;;;;;;5022943;28;19985;-72
2024/01/25 04:29:18;;;;;;;;;;;6.60;99.90;;;;;;5022024;28;19921;-72
2024/01/25 04:31:45;;;;;;;;;;;6.60;99.90;;;;;;5006329;28;19922;-72
2024/01/25 04:34:13;;;;;;;;;;;6.60;99.90;;;;;;5013551;28;19928;-72
2024/01/25 04:36:40;;;;;;;;;;;6.60;99.90;;;;;;5021415;28;19961;-71
2024/01/25 04:39:07;;;;;;;;;;;6.60;99.90;;;;;;5022826;28;19921;-72
2024/01/25 04:41:34;;;;;;;;;;;6.60;99.90;;;;;;5021897;28;19968;-72
2024/01/25 04:44:01;;;;;;;;;;;6.60;99.90;;;;;;5022364;28;20272;-72
2024/01/25 04:46:28;;;;;;;;;;;6.60;99.90;;;;;;5021406;28;19956;-72
2024/01/25 04:48:54;;;;;;;;;;;6.60;99.90;;;;;;5022444;28;19953;-73
2024/01/25 04:51:21;;;;;;;;;;;6.60;99.90;;;;;;5022045;28;20091;-72
2024/01/25 04:53:48;;;;;;;;;;;6.60;99.90;;;;;;5006104;28;19989;-72
2024/01/25 04:56:14;;;;;;;;;;;6.50;99.90;;;;;;5005899;28;19928;-72
2024/01/25 04:58:42;;;;;;;;;;;6.50;99.90;;;;;;5006474;28;19953;-72
2024/01/25 05:01:09;;;;;;;;;;;6.50;99.90;;;;;;5019323;28;19980;-73
2024/01/25 05:03:35;;;;;;;;;;;6.50;99.90;;;;;;5021185;28;19980;-72
2024/01/25 05:06:02;;;;;;;;;;;6.40;99.90;;;;;;5021793;28;19960;-72
2024/01/25 05:08:29;;;;;;;;;;;6.40;99.90;;;;;;5021076;28;19921;-72
2024/01/25 05:10:55;;;;;;;;;;;6.30;99.90;;;;;;5021836;28;19989;-72
2024/01/25 05:13:22;;;;;;;;;;;6.30;99.90;;;;;;5021485;28;19953;-73
2024/01/25 05:15:50;;;;;;;;;;;6.30;99.90;;;;;;4998754;28;19985;-72
2024/01/25 05:18:16;;;;;;;;;;;6.20;99.90;;;;;;5006641;28;19961;-73
2024/01/25 05:20:43;;;;;;;;;;;6.20;99.90;;;;;;5009285;28;19921;-73
2024/01/25 05:23:10;;;;;;;;;;;6.20;99.90;;;;;;5009870;28;19928;-73
2024/01/25 05:25:36;;;;;;;;;;;6.10;99.90;;;;;;5006413;28;19922;-72
2024/01/25 05:28:03;;;;;;;;;;;6.10;99.90;;;;;;5005793;28;19928;-73
2024/01/25 05:30:30;;;;;;;;;;;6.10;99.90;;;;;;5006536;28;19984;-73
2024/01/25 05:32:58;;;;;;;;;;;6.20;99.90;;;;;;5006203;28;19925;-72
2024/01/25 05:35:25;;;;;;;;;;;6.10;99.90;;;;;;5012014;28;19928;-72
2024/01/25 05:37:51;;;;;;;;;;;6.10;99.90;;;;;;5015702;28;20286;-72
2024/01/25 05:40:18;;;;;;;;;;;6.10;99.90;;;;;;5019857;28;19988;-72
2024/01/25 05:42:44;;;;;;;;;;;6.10;99.90;;;;;;5023773;28;19960;-73
2024/01/25 05:45:11;;;;;;;;;;;6.10;99.90;;;;;;5014371;28;20161;-72
2024/01/25 05:47:38;;;;;;;;;;;6.20;99.90;;;;;;5006060;28;20305;-73
2024/01/25 05:50:06;;;;;;;;;;;6.20;99.90;;;;;;5005283;28;20000;-73
2024/01/25 05:52:36;;;;;;;;;;;6.10;99.90;;;;;;5008489;28;19934;-72
2024/01/25 05:55:03;;;;;;;;;;;6.10;99.90;;;;;;5017824;28;19948;-72
2024/01/25 05:57:29;;;;;;;;;;;6.10;99.90;;;;;;5021071;28;20210;-72
2024/01/25 05:59:56;;;;;;;;;;;6.10;99.90;;;;;;5012281;28;19993;-72
2024/01/25 06:02:23;;;;;;;;;;;6.10;99.90;;;;;;5019778;28;19922;-72
2024/01/25 06:04:49;;;;;;;;;;;6.10;99.90;;;;;;5021254;28;20182;-72
2024/01/25 06:07:17;;;;;;;;;;;6.10;99.90;;;;;;5020972;28;19927;-72
2024/01/25 06:09:44;;;;;;;;;;;6.10;99.90;;;;;;4998025;28;19957;-72
2024/01/25 06:12:10;;;;;;;;;;;6.10;99.90;;;;;;5005105;28;19984;-72
2024/01/25 06:14:37;;;;;;;;;;;6.00;99.90;;;;;;5013703;28;19984;-72
2024/01/25 06:17:04;;;;;;;;;;;6.00;99.90;;;;;;5011340;28;19922;-72
2024/01/25 06:19:31;;;;;;;;;;;6.10;99.90;;;;;;5005870;28;19964;-72
2024/01/25 06:21:57;;;;;;;;;;;6.10;99.90;;;;;;5005508;28;20406;-72
2024/01/25 06:24:25;;;;;;;;;;;6.00;99.90;;;;;;5007338;28;19985;-71
2024/01/25 06:26:53;;;;;;;;;;;6.00;99.90;;;;;;5016472;28;19957;-73
2024/01/25 06:29:19;;;;;;;;;;;6.00;99.90;;;;;;4983796;28;19937;-71
2024/01/25 06:31:46;;;;;;;;;;;6.00;99.90;;;;;;4974093;28;19957;-73
2024/01/25 06:34:13;;;;;;;;;;;5.90;99.90;;;;;;4987576;28;20162;-74
2024/01/25 06:36:39;;;;;;;;;;;5.90;99.90;;;;;;5015721;28;19988;-74
2024/01/25 06:39:06;;;;;;;;;;;5.80;99.90;;;;;;5008681;28;19985;-74
2024/01/25 06:41:34;;;;;;;;;;;5.80;99.90;;;;;;5010983;28;21156;-74
2024/01/25 06:44:01;;;;;;;;;;;5.80;99.90;;;;;;5013079;28;19922;-74
2024/01/25 06:46:27;;;;;;;;;;;5.70;99.90;;;;;;5008996;28;20165;-74
2024/01/25 06:48:54;;;;;;;;;;;5.70;99.90;;;;;;5008716;28;19989;-74
2024/01/25 06:51:21;;;;;;;;;;;5.70;99.90;;;;;;5016639;28;20142;-74
2024/01/25 06:53:47;;;;;;;;;;;5.70;99.90;;;;;;5019460;28;19984;-74
2024/01/25 06:56:14;;;;;;;;;;;5.70;99.90;;;;;;5018863;28;19925;-74
2024/01/25 06:58:42;;;;;;;;;;;5.60;99.90;;;;;;5018769;28;20000;-74
2024/01/25 07:01:09;;;;;;;;;;;5.60;99.90;;;;;;5018147;28;19961;-74
2024/01/25 07:03:36;;;;;;;;;;;5.50;99.90;;;;;;5023839;28;19926;-74
2024/01/25 07:06:03;;;;;;;;;;;5.50;99.90;;;;;;5024718;28;19953;-74
2024/01/25 07:08:30;;;;;;;;;;;5.50;99.90;;;;;;5015937;28;19922;-74
2024/01/25 07:10:59;;;;;;;;;;;5.50;99.90;;;;;;5012467;28;20004;-74
2024/01/25 07:13:26;;;;;;;;;;;5.50;99.90;;;;;;5024070;28;19993;-74
2024/01/25 07:15:54;;;;;;;;;;;5.40;99.90;;;;;;5013401;28;19985;-74
2024/01/25 07:18:21;;;;;;;;;;;5.40;99.90;;;;;;5022008;28;20292;-74
2024/01/25 07:20:47;;;;;;;;;;;5.40;99.90;;;;;;5024730;28;20265;-74
2024/01/25 07:23:14;;;;;;;;;;;5.40;99.90;;;;;;5011647;28;19984;-74
2024/01/25 07:25:40;;;;;;;;;;;5.30;99.90;;;;;;5016577;28;20261;-74
2024/01/25 07:28:07;;;;;;;;;;;5.30;99.90;;;;;;5024500;28;19989;-73
2024/01/25 07:30:34;;;;;;;;;;;5.30;99.90;;;;;;5023266;28;20278;-74
2024/01/25 07:33:02;;;;;;;;;;;5.30;99.90;;;;;;5019734;28;20143;-74
2024/01/25 07:35:28;;;;;;;;;;;5.30;99.90;;;;;;5008282;28;19922;-74
2024/01/25 07:37:55;;;;;;;;;;;5.20;99.90;;;;;;5007920;28;20122;-73
2024/01/25 07:40:21;;;;;;;;;;;5.20;99.90;;;;;;5008729;28;19988;-74
2024/01/25 07:42:48;;;;;;;;;;;5.20;99.90;;;;;;5013612;28;19993;-74
2024/01/25 07:45:15;;;;;;;;;;;5.20;99.90;;;;;;5014658;28;19930;-74
2024/01/25 07:47:41;;;;;;;;;;;5.20;99.90;;;;;;5023898;28;19984;-74
2024/01/25 07:50:10;;;;;;;;;;;5.20;99.90;;;;;;5023499;28;19959;-74
2024/01/25 07:52:36;;;;;;;;;;;5.20;99.90;;;;;;5010717;28;19965;-74
2024/01/25 07:55:04;;;;;;;;;;;5.30;99.90;;;;;;5024258;28;19984;-74
2024/01/25 07:57:30;;;;;;;;;;;5.20;99.90;;;;;;5023638;28;20207;-74
2024/01/25 07:59:57;;;;;;;;;;;5.20;99.90;;;;;;5023688;28;19992;-74
2024/01/25 08:02:23;;;;;;;;;;;5.20;99.90;;;;;;5022161;28;20125;-74
2024/01/25 08:04:50;;;;;;;;;;;5.30;99.90;;;;;;5006894;28;19922;-74
2024/01/25 08:07:18;;;;;;;;;;;5.30;99.90;;;;;;5021119;28;20147;-75
2024/01/25 08:09:45;;;;;;;;;;;5.30;99.90;;;;;;4999945;28;19922;-74
2024/01/25 08:12:11;;;;;;;;;;;5.40;99.90;;;;;;5013147;28;19928;-75
2024/01/25 08:14:38;;;;;;;;;;;5.40;99.90;;;;;;5022262;28;19990;-74
2024/01/25 08:17:04;;;;;;;;;;;5.40;99.90;;;;;;5023560;28;19953;-74
2024/01/25 08:19:31;;;;;;;;;;;5.50;99.90;;;;;;5022237;28;19922;-74
2024/01/25 08:21:58;;;;;;;;;;;5.40;99.90;;;;;;5023461;28;19922;-75
2024/01/25 08:24:25;;;;;;;;;;;5.50;99.90;;;;;;5021688;28;19928;-74
2024/01/25 08:26:52;;;;;;;;;;;5.50;99.90;;;;;;5023384;28;19993;-74
2024/01/25 08:29:19;;;;;;;;;;;5.50;99.90;;;;;;5022149;28;20096;-74
2024/01/25 08:31:46;;;;;;;;;;;5.50;99.90;;;;;;4999549;28;20253;-74
2024/01/25 08:34:12;;;;;;;;;;;5.50;99.90;;;;;;5005979;28;19989;-74
2024/01/25 08:36:39;;;;;;;;;;;5.60;99.90;;;;;;5004186;28;19996;-74
2024/01/25 08:39:05;;;;;;;;;;;5.60;99.90;;;;;;5004874;28;20054;-74
2024/01/25 08:41:33;;;;;;;;;;;5.60;99.90;;;;;;5004678;28;19918;-74
2024/01/25 08:44:00;;;;;;;;;;;5.60;99.90;;;;;;5010446;28;20122;-75
2024/01/25 08:46:26;;;;;;;;;;;5.70;99.90;;;;;;5015410;28;19929;-74
2024/01/25 08:48:53;;;;;;;;;;;5.70;99.90;;;;;;5012392;28;19988;-75
2024/01/25 08:51:19;;;;;;;;;;;5.80;99.90;;;;;;5006876;28;20278;-74
2024/01/25 08:53:46;;;;;;;;;;;5.80;99.90;;;;;;5006391;28;19992;-74
2024/01/25 08:56:13;;;;;;;;;;;5.90;99.90;;;;;;5019730;28;19928;-74
2024/01/25 08:58:41;;;;;;;;;;;5.90;99.90;;;;;;5006634;28;19990;-74
2024/01/25 09:01:07;;;;;;;;;;;6.00;99.90;;;;;;5018786;28;20230;-74
2024/01/25 09:03:34;;;;;;;;;;;6.00;99.90;;;;;;5024827;28;19984;-74
2024/01/25 09:06:05;;;;;;;;;;;6.10;99.90;;;;;;5022078;28;19992;-74
2024/01/25 09:08:31;;;;;;;;;;;6.10;99.90;;;;;;5023163;28;19928;-74
2024/01/25 09:10:58;;;;;;;;;;;6.20;99.90;;;;;;5022263;28;19921;-74
2024/01/25 09:13:24;;;;;;;;;;;6.20;99.90;;;;;;5022461;28;19922;-74
2024/01/25 09:15:53;;;;;;;;;;;6.20;99.90;;;;;;5022016;28;20151;-74
2024/01/25 09:18:20;;;;;;;;;;;6.30;99.90;;;;;;5021569;28;19928;-75
2024/01/25 09:20:48;;;;;;;;;;;6.40;99.90;;;;;;5022507;28;19981;-74
2024/01/25 09:23:15;;;;;;;;;;;6.40;99.90;;;;;;5022161;28;19944;-74
2024/01/25 09:25:42;;;;;;;;;;;6.40;99.90;;;;;;5019075;28;19929;-74
2024/01/25 09:28:11;;;;;;;;;;;6.50;99.90;;;;;;5006016;28;19922;-74
2024/01/25 09:30:38;;;;;;;;;;;6.50;99.90;;;;;;5006848;28;19968;-73
2024/01/25 09:33:06;;;;;;;;;;;6.60;99.90;;;;;;5005767;28;19936;-74
2024/01/25 09:35:33;;;;;;;;;;;6.60;99.90;;;;;;5012704;28;19956;-74
2024/01/25 09:37:59;;;;;;;;;;;6.60;99.90;;;;;;5005872;28;19993;-74
2024/01/25 09:40:26;;;;;;;;;;;6.70;99.90;;;;;;5005870;28;19989;-74
2024/01/25 09:42:53;;;;;;;;;;;6.70;99.90;;;;;;5005878;28;19928;-74
2024/01/25 09:45:20;;;;;;;;;;;6.70;99.90;;;;;;5006692;28;19941;-73
2024/01/25 09:47:47;;;;;;;;;;;6.80;99.90;;;;;;5006109;28;19951;-74
2024/01/25 09:50:16;;;;;;;;;;;6.80;99.90;;;;;;5005384;28;19929;-72
2024/01/25 09:52:44;;;;;;;;;;;6.90;99.90;;;;;;5005868;28;19960;-73
2024/01/25 09:55:14;;;;;;;;;;;6.90;99.90;;;;;;5012409;28;19921;-74
2024/01/25 09:57:42;;;;;;;;;;;7.00;99.90;;;;;;5024406;28;19929;-73
2024/01/25 10:00:11;;;;;;;;;;;7.00;99.90;;;;;;5026184;28;19921;-74
2024/01/25 10:02:38;;;;;;;;;;;7.00;99.90;;;;;;5025622;28;19993;-74
2024/01/25 10:05:05;;;;;;;;;;;7.10;99.90;;;;;;5025484;28;19952;-73
2024/01/25 10:07:39;;;;;;;;;;;7.10;99.90;;;;;;5012083;28;20068;-74
2024/01/25 10:10:06;;;;;;;;;;;7.10;99.90;;;;;;5025629;28;19948;-74
2024/01/25 10:12:33;;;;;;;;;;;7.20;99.90;;;;;;5023934;28;21111;-73
2024/01/25 10:15:00;;;;;;;;;;;7.20;99.90;;;;;;5014340;28;19960;-74
2024/01/25 10:17:26;;;;;;;;;;;7.20;99.90;;;;;;5011718;28;19922;-74
2024/01/25 10:19:53;;;;;;;;;;;7.20;99.90;;;;;;5008915;28;20207;-74
2024/01/25 10:22:20;;;;;;;;;;;7.20;99.90;;;;;;5009747;28;19953;-74
2024/01/25 10:24:50;;;;;;;;;;;7.30;99.90;;;;;;5012359;28;20273;-74
2024/01/25 10:27:16;;;;;;;;;;;7.30;99.90;;;;;;5019779;28;19922;-74
2024/01/25 10:29:43;;;;;;;;;;;7.30;99.90;;;;;;5024788;28;20233;-74
2024/01/25 10:32:10;;;;;;;;;;;7.30;99.90;;;;;;5025320;28;19984;-74
2024/01/25 10:34:37;;;;;;;;;;;7.20;99.90;;;;;;5023935;28;19925;-75
2024/01/25 10:37:04;;;;;;;;;;;7.20;99.90;;;;;;5014236;28;20160;-73
2024/01/25 10:39:31;;;;;;;;;;;7.20;99.90;;;;;;5010960;28;19989;-74
2024/01/25 10:41:59;;;;;;;;;;;7.20;99.90;;;;;;5014225;28;19985;-74
2024/01/25 10:44:26;;;;;;;;;;;7.20;99.90;;;;;;5009909;28;20192;-74
2024/01/25 10:46:54;;;;;;;;;;;7.30;99.90;;;;;;5026831;28;19921;-74
2024/01/25 10:49:21;;;;;;;;;;;7.30;99.90;;;;;;5025293;28;19921;-74
2024/01/25 10:51:48;;;;;;;;;;;7.40;99.90;;;;;;5024894;28;19961;-73
2024/01/25 10:54:15;;;;;;;;;;;7.50;99.90;;;;;;5024793;28;19988;-74
2024/01/25 10:56:40;;;;;;;;;;;7.50;99.90;;;;;;5023858;28;20362;-74
2024/01/25 10:59:09;;;;;;;;;;;7.50;99.90;;;;;;5024749;28;19917;-74
2024/01/25 11:01:35;;;;;;;;;;;7.60;99.90;;;;;;5023984;28;19964;-74
2024/01/25 11:04:02;;;;;;;;;;;7.60;99.90;;;;;;5024502;28;20167;-74
2024/01/25 11:06:29;;;;;;;;;;;7.70;99.90;;;;;;5016463;28;20174;-74
2024/01/25 11:09:04;;;;;;;;;;;7.70;99.90;;;;;;5007531;28;19926;-75
2024/01/25 11:11:31;;;;;;;;;;;7.70;99.90;;;;;;5009113;28;20251;-73
2024/01/25 11:13:59;;;;;;;;;;;7.70;99.90;;;;;;5015306;28;19929;-74
2024/01/25 11:16:30;;;;;;;;;;;7.80;99.90;;;;;;5015554;28;19997;-74
2024/01/25 11:18:58;;;;;;;;;;;7.90;99.90;;;;;;5007936;28;20211;-73
2024/01/25 11:21:29;;;;;;;;;;;8.00;99.90;;;;;;5016222;28;19927;-74
2024/01/25 11:24:00;;;;;;;;;;;8.10;99.90;;;;;;5024189;28;19932;-74
2024/01/25 11:26:26;;;;;;;;;;;8.30;99.90;;;;;;5016421;28;19988;-74
2024/01/25 11:28:53;;;;;;;;;;;8.30;99.90;;;;;;5007500;28;19989;-74
2024/01/25 11:31:20;;;;;;;;;;;8.40;99.90;;;;;;5015077;28;19981;-74
2024/01/25 11:33:48;;;;;;;;;;;8.40;99.90;;;;;;5007764;28;19964;-74
2024/01/25 11:36:15;;;;;;;;;;;8.40;99.90;;;;;;5007090;28;19964;-73
2024/01/25 11:38:41;;;;;;;;;;;8.40;99.90;;;;;;5009128;28;19984;-74
2024/01/25 11:41:08;;;;;;;;;;;8.30;99.90;;;;;;5023919;28;20237;-74
2024/01/25 11:43:36;;;;;;;;;;;8.30;99.90;;;;;;5023272;28;20061;-74
2024/01/25 11:46:03;;;;;;;;;;;8.40;99.90;;;;;;5023215;28;19925;-74
2024/01/25 11:48:30;;;;;;;;;;;8.40;99.90;;;;;;5021908;28;19922;-72
2024/01/25 11:50:59;;;;;;;;;;;8.30;99.90;;;;;;5024207;28;20258;-74
2024/01/25 11:53:25;;;;;;;;;;;8.20;99.90;;;;;;5007356;28;19985;-73
2024/01/25 11:55:52;;;;;;;;;;;8.30;99.90;;;;;;5005657;28;19928;-74
2024/01/25 11:58:19;;;;;;;;;;;8.40;99.90;;;;;;5007372;28;19985;-74
2024/01/25 12:00:45;;;;;;;;;;;8.50;99.90;;;;;;4999943;28;19957;-74
2024/01/25 12:03:12;;;;;;;;;;;8.60;99.90;;;;;;5021084;28;19956;-75
2024/01/25 12:05:39;;;;;;;;;;;8.60;99.90;;;;;;5021466;28;19990;-74
2024/01/25 12:08:10;;;;;;;;;;;8.60;99.90;;;;;;5023514;28;20019;-74
2024/01/25 12:10:37;;;;;;;;;;;8.70;99.90;;;;;;5022704;28;19952;-74
2024/01/25 12:13:03;;;;;;;;;;;8.70;99.90;;;;;;5023305;28;19921;-74
2024/01/25 12:15:32;;;;;;;;;;;8.80;99.90;;;;;;5017235;28;19969;-74
2024/01/25 12:17:59;;;;;;;;;;;8.80;99.90;;;;;;5010986;28;20265;-74
2024/01/25 12:20:27;;;;;;;;;;;8.90;99.90;;;;;;5011433;28;20234;-74
2024/01/25 12:22:53;;;;;;;;;;;8.90;99.90;;;;;;5011010;28;19953;-73
2024/01/25 12:25:22;;;;;;;;;;;8.90;99.90;;;;;;5023151;28;19922;-74
2024/01/25 12:27:49;;;;;;;;;;;8.90;99.90;;;;;;5025306;28;19957;-73
2024/01/25 12:30:16;;;;;;;;;;;9.00;99.90;;;;;;5016091;28;20239;-74
2024/01/25 12:32:43;;;;;;;;;;;9.00;99.90;;;;;;5007102;28;19922;-74
2024/01/25 12:35:10;;;;;;;;;;;9.00;99.90;;;;;;5005834;28;19929;-77
2024/01/25 12:37:36;;;;;;;;;;;8.90;99.90;;;;;;5007480;28;19928;-74
2024/01/25 12:40:04;;;;;;;;;;;8.80;99.90;;;;;;5006242;28;19981;-73
2024/01/25 12:42:32;;;;;;;;;;;8.70;99.90;;;;;;5008898;28;19921;-74
2024/01/25 12:44:58;;;;;;;;;;;8.60;99.90;;;;;;5023519;28;20237;-73
2024/01/25 12:47:25;;;;;;;;;;;8.60;99.90;;;;;;5022060;28;19964;-74
2024/01/25 12:49:52;;;;;;;;;;;8.60;99.90;;;;;;5022410;28;19922;-72
2024/01/25 12:52:19;;;;;;;;;;;8.60;99.90;;;;;;5022482;28;19988;-74
2024/01/25 12:54:45;;;;;;;;;;;8.60;99.90;;;;;;5004226;28;19928;-74
2024/01/25 12:57:12;;;;;;;;;;;8.70;99.90;;;;;;5006309;28;19922;-73
2024/01/25 12:59:40;;;;;;;;;;;8.70;99.90;;;;;;5021000;28;19922;-74
2024/01/25 13:02:07;;;;;;;;;;;8.80;99.90;;;;;;5022899;28;19957;-74
2024/01/25 13:04:34;;;;;;;;;;;8.80;99.90;;;;;;5020993;28;19998;-74
2024/01/25 13:07:01;;;;;;;;;;;8.70;99.90;;;;;;5023538;28;19961;-74
2024/01/25 13:09:29;;;;;;;;;;;8.70;99.90;;;;;;5022187;28;19988;-74
2024/01/25 13:11:55;;;;;;;;;;;8.70;99.90;;;;;;5006152;28;19922;-74
2024/01/25 13:14:22;;;;;;;;;;;8.70;99.90;;;;;;5005898;28;19928;-74
2024/01/25 13:16:50;;;;;;;;;;;8.60;99.90;;;;;;5005910;28;19957;-74
2024/01/25 13:19:17;;;;;;;;;;;8.60;99.90;;;;;;5013115;28;19921;-73
2024/01/25 13:21:43;;;;;;;;;;;8.50;99.90;;;;;;5022114;28;19944;-74
2024/01/25 13:24:10;;;;;;;;;;;8.50;99.90;;;;;;5022141;28;19922;-73
2024/01/25 13:26:37;;;;;;;;;;;8.40;99.90;;;;;;5020850;28;20171;-74
2024/01/25 13:29:03;;;;;;;;;;;8.40;99.90;;;;;;5022188;28;20173;-74
2024/01/25 13:31:30;;;;;;;;;;;8.40;99.90;;;;;;5014100;28;19989;-74
2024/01/25 13:33:58;;;;;;;;;;;8.40;99.90;;;;;;5018395;28;19928;-73
2024/01/25 13:36:25;;;;;;;;;;;8.30;99.90;;;;;;5003948;28;19929;-74
2024/01/25 13:38:51;;;;;;;;;;;8.40;99.90;;;;;;5003804;28;19922;-74
2024/01/25 13:41:18;;;;;;;;;;;8.30;99.90;;;;;;5011914;28;19922;-74
2024/01/25 13:43:44;;;;;;;;;;;8.30;99.90;;;;;;5005851;28;19922;-74
2024/01/25 13:46:11;;;;;;;;;;;8.40;99.90;;;;;;5004946;28;19996;-74
2024/01/25 13:48:38;;;;;;;;;;;8.40;99.90;;;;;;5004507;28;19922;-74
2024/01/25 13:51:06;;;;;;;;;;;8.50;99.90;;;;;;5010186;28;19988;-74
2024/01/25 13:53:34;;;;;;;;;;;8.40;99.90;;;;;;5010912;28;19928;-74
2024/01/25 13:55:59;;;;;;;;;;;8.40;99.90;;;;;;5003710;28;19969;-74
2024/01/25 13:58:26;;;;;;;;;;;8.40;99.90;;;;;;5006070;28;19917;-74
2024/01/25 14:00:52;;;;;;;;;;;8.40;99.90;;;;;;5005703;28;19984;-73
2024/01/25 14:03:19;;;;;;;;;;;8.40;99.90;;;;;;5006056;28;20239;-74
2024/01/25 14:05:46;;;;;;;;;;;8.40;99.90;;;;;;5022074;28;19988;-74
2024/01/25 14:08:14;;;;;;;;;;;8.30;99.90;;;;;;5015160;28;19953;-75
2024/01/25 14:10:41;;;;;;;;;;;8.30;99.90;;;;;;5012474;28;19957;-74
2024/01/25 14:13:07;;;;;;;;;;;8.30;99.90;;;;;;5005518;28;20131;-74
2024/01/25 14:15:35;;;;;;;;;;;8.30;99.90;;;;;;5005300;28;19940;-74
2024/01/25 14:18:01;;;;;;;;;;;8.20;99.90;;;;;;5005200;28;20307;-75
2024/01/25 14:20:28;;;;;;;;;;;8.30;99.90;;;;;;5005989;28;19922;-74
2024/01/25 14:22:55;;;;;;;;;;;8.20;99.90;;;;;;5016681;28;19993;-75
2024/01/25 14:25:23;;;;;;;;;;;8.20;99.90;;;;;;5020258;28;20174;-74
2024/01/25 14:27:49;;;;;;;;;;;8.10;99.90;;;;;;5021812;28;19953;-74
2024/01/25 14:30:16;;;;;;;;;;;8.10;99.90;;;;;;5021008;28;19922;-74